createdAt,value
2022-07-30T00:03:00.760Z,2.75
2022-07-30T00:05:46.655Z,2.50
2022-07-30T00:08:35.018Z,2.50
2022-07-30T00:11:51.433Z,2.33
2022-07-30T00:14:26.721Z,1.80
2022-07-30T00:17:12.634Z,2.35
2022-07-30T00:20:05.045Z,2.25
2022-07-30T00:23:02.674Z,2.28
2022-07-30T00:26:11.357Z,1.77
2022-07-30T01:02:57.900Z,2.50
2022-07-30T01:14:04.338Z,2.30
2022-07-30T01:48:03.581Z,2.67
2022-07-30T02:07:03.220Z,2.50
2022-07-30T02:09:47.286Z,3.03
2022-07-30T02:12:38.914Z,2.30
2022-07-30T02:16:10.315Z,2.75
2022-07-30T02:22:47.211Z,2.40
2022-07-30T02:36:58.694Z,2.00
2022-07-30T02:39:34.741Z,2.53
2022-07-30T02:51:25.959Z,2.30
2022-07-30T02:59:01.106Z,2.70
2022-07-30T03:04:51.697Z,2.63
2022-07-30T03:08:43.129Z,2.33
2022-07-30T03:15:53.246Z,2.03
2022-07-30T03:19:49.095Z,2.25
2022-07-30T03:22:24.948Z,2.60
2022-07-30T03:47:27.716Z,2.58
2022-07-30T03:50:58.794Z,2.30
2022-07-30T04:01:53.888Z,2.28
2022-07-30T04:05:19.106Z,2.75
2022-07-30T04:32:11.021Z,2.97
2022-07-30T04:39:50.734Z,2.28
2022-07-30T04:42:26.755Z,2.58
2022-07-30T04:47:11.986Z,2.30
2022-07-30T04:49:06.928Z,2.15
2022-07-30T05:03:09.167Z,2.15
2022-07-30T05:10:58.626Z,2.30
2022-07-30T05:45:36.553Z,2.60
2022-07-30T05:53:05.026Z,1.85
2022-07-30T05:59:43.967Z,2.38
2022-07-30T06:30:56.155Z,2.20
2022-07-30T06:33:34.584Z,2.08
2022-07-30T06:36:21.815Z,2.40
2022-07-30T06:39:11.616Z,2.05
2022-07-30T06:42:07.815Z,1.98
2022-07-30T06:45:12.653Z,1.70
2022-07-30T06:48:05.632Z,2.00
2022-07-30T06:50:33.186Z,1.63
2022-07-30T06:53:00.193Z,1.90
2022-07-30T06:55:37.717Z,1.95
2022-07-30T06:58:04.831Z,2.00
2022-07-30T07:00:57.936Z,1.75
2022-07-30T07:03:39.743Z,2.03
2022-07-30T07:06:07.261Z,1.60
2022-07-30T07:08:36.791Z,1.85
2022-07-30T07:11:05.412Z,2.00
2022-07-30T07:13:42.020Z,1.50
2022-07-30T07:16:12.930Z,1.83
2022-07-30T07:18:44.177Z,1.80
2022-07-30T07:21:11.418Z,1.75
2022-07-30T07:23:41.575Z,1.95
2022-07-30T07:26:21.247Z,1.67
2022-07-30T07:28:48.248Z,1.70
2022-07-30T07:32:04.542Z,1.73
2022-07-30T07:34:02.304Z,1.50
2022-07-30T07:36:29.856Z,1.67
2022-07-30T07:38:56.842Z,1.90
2022-07-30T07:41:23.869Z,1.48
2022-07-30T07:43:50.824Z,1.35
2022-07-30T07:46:33.394Z,1.73
2022-07-30T07:49:02.667Z,1.80
2022-07-30T07:51:48.364Z,1.75
2022-07-30T07:56:57.741Z,1.30
2022-07-30T07:59:40.136Z,1.27
2022-07-30T08:02:26.581Z,1.42
2022-07-30T08:05:06.286Z,1.40
2022-07-30T08:07:52.477Z,1.70
2022-07-30T08:10:38.272Z,1.45
2022-07-30T18:10:11.061Z,1.33
2022-07-30T18:12:48.439Z,1.50
2022-07-30T18:15:36.083Z,2.30
2022-07-30T18:18:45.701Z,1.67
2022-07-30T18:21:42.527Z,1.45
2022-07-30T18:41:22.814Z,1.73
2022-07-30T18:44:19.996Z,1.30
